Terminal Aerodrome Forecast
Issued by NWS Cleveland, OH

Home | Current Version | Previous Version | Graphics & Text | Print | Product List | Glossary On
Versions: 1 2 3 4 5 6 7 8 9 10 11 12 13 14 15 16 17
000
FTUS41 KCLE 221100
TAFMFD
TAF
KMFD 221130Z 2212/2312 26011KT 5SM BR VCSH BKN007 OVC015
     FM221400 30012G18KT P6SM OVC010
     FM221800 31015G25KT P6SM BKN025
     FM230100 31010KT P6SM BKN030=

USA.gov is the U.S. government's official web portal to all federal, state and local government web resources and services.